Time;durP1;ratioP1;P1;durP2;ratioP2;P2;SDS_P1;SDS_P2;PMS_P1;PMS_P2;Temp;Humidity;BMP_temperature;BMP_pressure;BME280_temperature;BME280_humidity;BME280_pressure;Samples;Min_cycle;Max_cycle;Signal;HPM_P1;HPM_P2
2022/12/27 00:01:59;;;;;;;395.58;187.25;;;6.70;99.90;;;;;;5094807;28;20481;-78
2022/12/27 00:04:26;;;;;;;416.27;198.13;;;6.70;99.90;;;;;;5076688;28;20046;-77
2022/12/27 00:06:52;;;;;;;407.33;186.88;;;6.70;99.90;;;;;;5094721;28;20425;-77
2022/12/27 00:09:18;;;;;;;397.13;188.88;;;6.70;99.90;;;;;;5100035;28;20027;-77
2022/12/27 00:11:44;;;;;;;375.33;177.65;;;6.80;99.90;;;;;;5115112;28;20084;-77
2022/12/27 00:14:10;;;;;;;401.02;198.20;;;6.80;99.90;;;;;;5115007;28;20055;-77
2022/12/27 00:16:37;;;;;;;386.33;187.38;;;6.80;99.90;;;;;;5114882;28;20057;-77
2022/12/27 00:19:04;;;;;;;389.60;193.25;;;6.90;99.90;;;;;;5114901;28;20469;-77
2022/12/27 00:21:30;;;;;;;396.38;189.52;;;6.90;99.90;;;;;;5115026;28;20019;-77
2022/12/27 00:23:57;;;;;;;386.70;182.00;;;6.80;99.90;;;;;;5115169;28;20024;-77
2022/12/27 00:26:28;;;;;;;381.25;181.25;;;6.90;99.90;;;;;;5100100;28;20016;-77
2022/12/27 00:28:55;;;;;;;390.65;184.52;;;6.90;99.90;;;;;;5118942;28;20039;-77
2022/12/27 00:31:22;;;;;;;392.20;190.75;;;7.00;99.90;;;;;;5119047;28;20027;-78
2022/12/27 00:33:50;;;;;;;374.98;178.65;;;7.00;99.90;;;;;;5119076;28;20081;-77
2022/12/27 00:36:18;;;;;;;374.17;184.32;;;7.10;99.90;;;;;;5118960;28;20031;-78
2022/12/27 00:38:45;;;;;;;364.27;179.95;;;7.10;99.90;;;;;;5118847;28;20028;-77
2022/12/27 00:41:11;;;;;;;365.20;174.25;;;7.10;99.90;;;;;;5119084;28;20031;-77
2022/12/27 00:43:37;;;;;;;342.23;164.25;;;7.20;99.90;;;;;;5118838;28;20024;-77
2022/12/27 00:46:03;;;;;;;355.02;168.73;;;7.20;99.90;;;;;;5118778;28;20088;-77
2022/12/27 00:48:30;;;;;;;340.33;161.32;;;7.20;99.90;;;;;;5118847;28;20019;-77
2022/12/27 00:51:01;;;;;;;344.52;162.18;;;7.10;99.90;;;;;;5110951;28;20091;-77
2022/12/27 00:53:29;;;;;;;354.80;170.80;;;7.20;99.90;;;;;;5098167;28;20086;-77
2022/12/27 00:55:55;;;;;;;360.33;175.45;;;7.20;99.90;;;;;;5098125;28;20084;-77
2022/12/27 00:58:21;;;;;;;361.88;176.85;;;7.20;99.90;;;;;;5098060;28;20064;-77
2022/12/27 01:00:47;;;;;;;355.73;167.23;;;7.30;99.90;;;;;;5097848;28;20458;-77
2022/12/27 01:03:15;;;;;;;351.60;166.95;;;7.30;99.90;;;;;;5098036;28;20619;-77
2022/12/27 01:05:41;;;;;;;352.38;168.95;;;7.30;99.90;;;;;;5097925;28;20028;-77
2022/12/27 01:08:07;;;;;;;345.90;160.80;;;7.30;99.90;;;;;;5097889;28;20031;-77
2022/12/27 01:10:33;;;;;;;340.15;160.30;;;7.30;99.90;;;;;;5113767;28;20024;-77
2022/12/27 01:13:01;;;;;;;325.92;155.35;;;7.30;99.90;;;;;;5118343;28;20560;-77
2022/12/27 01:15:27;;;;;;;330.02;155.55;;;7.30;99.90;;;;;;5118272;28;20082;-77
2022/12/27 01:17:53;;;;;;;302.88;147.10;;;7.30;99.90;;;;;;5117631;28;20036;-77
2022/12/27 01:20:20;;;;;;;295.42;143.38;;;7.40;99.90;;;;;;5116989;28;20028;-77
2022/12/27 01:22:46;;;;;;;280.13;136.23;;;7.40;99.90;;;;;;5116922;28;20015;-77
2022/12/27 01:25:12;;;;;;;281.48;135.65;;;7.50;99.90;;;;;;5116749;28;20020;-77
2022/12/27 01:27:38;;;;;;;285.60;134.80;;;7.50;99.90;;;;;;5116850;28;20035;-77
2022/12/27 01:30:05;;;;;;;268.05;132.90;;;7.60;99.90;;;;;;5116843;28;20043;-77
2022/12/27 01:32:33;;;;;;;271.73;132.73;;;7.60;99.90;;;;;;5116799;28;20035;-77
2022/12/27 01:34:59;;;;;;;296.35;138.55;;;7.60;99.90;;;;;;5117235;28;20051;-77
2022/12/27 01:37:27;;;;;;;283.38;137.88;;;7.60;99.90;;;;;;5116186;28;20099;-77
2022/12/27 01:39:54;;;;;;;294.33;136.98;;;7.60;99.90;;;;;;5098409;28;20053;-77
2022/12/27 01:45:24;;;;;;;303.33;142.98;;;7.60;99.90;;;;;;5116534;28;20073;-77
2022/12/27 01:47:53;;;;;;;292.92;139.18;;;7.70;99.90;;;;;;5116486;28;20034;-77
2022/12/27 01:50:45;;;;;;;271.83;129.63;;;7.70;99.90;;;;;;5114011;28;20043;-77
2022/12/27 01:53:34;;;;;;;257.98;122.93;;;7.70;99.90;;;;;;5096472;28;20073;-77
2022/12/27 01:56:06;;;;;;;233.45;115.30;;;7.70;99.90;;;;;;5096196;28;20039;-77
2022/12/27 01:58:53;;;;;;;237.75;118.60;;;7.70;99.90;;;;;;5095933;28;20028;-77
2022/12/27 02:01:41;;;;;;;246.65;119.93;;;7.80;99.90;;;;;;5095792;28;20085;-77
2022/12/27 02:04:12;;;;;;;239.77;116.82;;;7.80;99.90;;;;;;5095888;28;20076;-77
2022/12/27 02:06:39;;;;;;;242.18;119.85;;;7.80;99.90;;;;;;5095948;28;20032;-77
2022/12/27 02:09:39;;;;;;;236.88;116.07;;;7.90;99.90;;;;;;5099176;28;20149;-77
2022/12/27 02:12:07;;;;;;;227.68;111.90;;;7.90;99.90;;;;;;5116160;28;20452;-77
2022/12/27 02:14:44;;;;;;;222.68;108.75;;;7.80;99.90;;;;;;5116195;28;20084;-77
2022/12/27 02:17:14;;;;;;;242.10;119.30;;;7.90;99.90;;;;;;5115980;28;20484;-77
2022/12/27 02:19:39;;;;;;;239.00;116.55;;;7.90;99.90;;;;;;5071663;28;1280326;-78
2022/12/27 02:22:29;;;;;;;243.38;118.50;;;7.90;99.90;;;;;;5116975;28;20093;-77
2022/12/27 02:25:04;;;;;;;259.77;126.13;;;7.90;99.90;;;;;;5116925;28;20107;-77
2022/12/27 02:28:08;;;;;;;249.13;121.85;;;7.90;99.90;;;;;;5116939;28;20097;-77
2022/12/27 02:30:35;;;;;;;252.88;122.97;;;8.00;99.90;;;;;;5112835;28;20489;-77
2022/12/27 02:33:21;;;;;;;244.18;118.43;;;8.00;99.90;;;;;;5116651;28;20503;-77
2022/12/27 02:35:57;;;;;;;228.30;111.85;;;8.00;99.90;;;;;;5116739;28;20534;-77
2022/12/27 02:38:30;;;;;;;222.50;112.47;;;8.00;99.90;;;;;;5116677;28;20074;-77
2022/12/27 02:57:07;;;;;;;234.07;113.57;;;7.80;99.90;;;;;;5096238;28;20035;-77
2022/12/27 02:58:47;;;;;;;234.07;113.07;;;7.80;99.90;;;;;;5095623;28;20381;-77
2022/12/27 03:05:01;;;;;;;232.55;112.10;;;7.80;99.90;;;;;;5095803;28;20059;-77
2022/12/27 03:07:36;;;;;;;247.07;117.95;;;7.80;99.90;;;;;;5095800;28;20465;-77
2022/12/27 03:16:25;;;;;;;241.18;115.53;;;7.70;99.90;;;;;;5115980;28;20032;-77
2022/12/27 03:19:11;;;;;;;251.25;121.85;;;7.70;99.90;;;;;;5115739;28;20062;-77
2022/12/27 03:27:29;;;;;;;232.85;117.55;;;7.60;99.90;;;;;;5115825;28;20019;-77
2022/12/27 03:38:53;;;;;;;317.23;143.15;;;7.50;99.90;;;;;;5115637;28;20032;-77
2022/12/27 03:44:25;;;;;;;274.85;129.18;;;7.40;99.90;;;;;;5115557;28;20027;-77
2022/12/27 03:46:59;;;;;;;260.08;123.68;;;7.50;99.90;;;;;;5115438;28;20035;-77
2022/12/27 03:49:30;;;;;;;263.80;128.85;;;7.50;99.90;;;;;;5115291;28;20031;-77
2022/12/27 03:52:20;;;;;;;244.95;120.50;;;7.50;99.90;;;;;;5115643;28;20032;-77
2022/12/27 03:54:49;;;;;;;240.38;118.10;;;7.50;99.90;;;;;;5115273;28;20038;-77
2022/12/27 03:57:18;;;;;;;233.15;116.68;;;7.60;99.90;;;;;;5115195;28;20024;-77
2022/12/27 03:59:44;;;;;;;221.60;114.40;;;7.60;99.90;;;;;;5115260;28;20027;-78
2022/12/27 04:02:11;;;;;;;226.95;115.97;;;7.60;99.90;;;;;;5114881;28;20118;-77
2022/12/27 04:04:37;;;;;;;230.02;113.78;;;7.60;99.90;;;;;;5115212;28;20034;-77
2022/12/27 04:07:04;;;;;;;247.43;121.18;;;7.60;99.90;;;;;;5115077;28;20066;-78
2022/12/27 04:36:58;;;;;;;199.68;101.00;;;7.80;99.90;;;;;;5114746;28;20028;-77
2022/12/27 04:39:24;;;;;;;191.60;95.03;;;7.80;99.90;;;;;;5096695;28;20546;-77
2022/12/27 04:56:05;;;;;;;176.98;85.90;;;8.00;99.90;;;;;;5114684;28;20028;-77
2022/12/27 04:58:31;;;;;;;176.73;87.28;;;8.00;99.90;;;;;;5114689;28;20068;-77
2022/12/27 05:03:47;;;;;;;179.07;87.93;;;8.00;99.90;;;;;;5114696;28;20039;-77
2022/12/27 05:06:14;;;;;;;181.73;88.68;;;8.00;99.90;;;;;;5114648;28;20028;-77
2022/12/27 05:14:13;;;;;;;165.23;80.28;;;8.10;99.90;;;;;;5097844;28;20028;-77
2022/12/27 05:16:41;;;;;;;161.32;77.45;;;8.10;99.90;;;;;;5097888;28;20060;-77
2022/12/27 05:19:09;;;;;;;146.30;73.00;;;8.10;99.90;;;;;;5097770;28;20504;-77
2022/12/27 05:25:33;;;;;;;136.82;70.50;;;8.10;99.90;;;;;;5097858;28;20037;-77
2022/12/27 05:27:15;;;;;;;174.20;86.80;;;8.10;99.90;;;;;;5097848;28;20035;-77
2022/12/27 05:29:41;;;;;;;165.35;83.70;;;8.20;99.90;;;;;;5097866;28;20065;-77
2022/12/27 05:32:07;;;;;;;162.65;84.32;;;8.20;99.90;;;;;;5097599;28;20020;-77
2022/12/27 05:34:33;;;;;;;163.95;83.95;;;8.20;99.90;;;;;;5097610;28;20028;-77
2022/12/27 05:36:59;;;;;;;167.43;87.82;;;8.30;99.90;;;;;;5097561;28;20024;-77
2022/12/27 05:39:25;;;;;;;174.32;92.25;;;8.30;99.90;;;;;;5097297;28;20020;-77
2022/12/27 05:41:52;;;;;;;179.52;89.82;;;8.30;99.90;;;;;;5097488;28;20024;-77
2022/12/27 05:44:18;;;;;;;179.20;90.85;;;8.40;99.90;;;;;;5097356;28;20082;-77
2022/12/27 05:46:44;;;;;;;182.35;89.75;;;8.40;99.90;;;;;;5097336;28;20062;-77
2022/12/27 05:49:10;;;;;;;178.15;89.50;;;8.30;99.90;;;;;;5097217;28;20024;-77
2022/12/27 05:51:35;;;;;;;182.70;95.50;;;8.30;99.90;;;;;;5097097;28;20084;-77
2022/12/27 05:54:01;;;;;;;197.45;100.28;;;8.40;99.90;;;;;;5097422;28;20526;-77
2022/12/27 05:56:27;;;;;;;176.43;91.60;;;8.40;99.90;;;;;;5097122;28;20080;-77
2022/12/27 05:58:53;;;;;;;177.82;95.07;;;8.40;99.90;;;;;;5097089;28;20040;-77
2022/12/27 06:01:19;;;;;;;179.32;93.18;;;8.40;99.90;;;;;;5097068;28;20302;-77
2022/12/27 06:03:46;;;;;;;160.20;82.57;;;8.40;99.90;;;;;;5097089;28;20038;-77
2022/12/27 06:06:13;;;;;;;150.90;78.63;;;8.40;99.90;;;;;;5097113;28;20377;-77
2022/12/27 06:08:39;;;;;;;143.20;73.97;;;8.30;99.90;;;;;;5096969;28;20024;-77
2022/12/27 06:11:09;;;;;;;132.48;69.05;;;8.20;99.90;;;;;;5076632;28;20063;-77
2022/12/27 06:13:36;;;;;;;132.98;70.60;;;8.30;99.90;;;;;;5076603;28;20474;-77
2022/12/27 06:16:04;;;;;;;159.70;81.40;;;8.30;99.90;;;;;;5076489;28;20156;-77
2022/12/27 06:18:33;;;;;;;178.32;98.93;;;8.30;99.90;;;;;;5076972;28;20040;-77
2022/12/27 06:21:07;;;;;;;210.98;113.40;;;8.40;99.90;;;;;;5077941;28;20028;-77
2022/12/27 06:23:36;;;;;;;211.57;115.07;;;8.40;99.90;;;;;;5081301;28;20381;-77
2022/12/27 06:26:11;;;;;;;199.00;110.95;;;8.40;99.90;;;;;;5097792;28;20028;-77
2022/12/27 06:28:37;;;;;;;204.52;113.35;;;8.40;99.90;;;;;;5097344;28;20031;-77
2022/12/27 06:31:03;;;;;;;199.45;109.20;;;8.50;99.90;;;;;;5097663;28;20153;-77
2022/12/27 06:33:30;;;;;;;197.43;106.95;;;8.50;99.90;;;;;;5096722;28;20027;-77
2022/12/27 06:35:56;;;;;;;192.05;103.78;;;8.50;99.90;;;;;;5098490;28;20035;-77
2022/12/27 06:38:23;;;;;;;187.45;99.70;;;8.50;99.90;;;;;;5096050;28;20032;-78
2022/12/27 06:40:50;;;;;;;182.90;96.88;;;8.60;99.90;;;;;;5101536;28;20027;-77
2022/12/27 06:43:19;;;;;;;175.32;91.22;;;8.60;99.90;;;;;;5113677;28;20035;-77
2022/12/27 06:45:55;;;;;;;179.07;91.90;;;8.60;99.90;;;;;;5111454;28;20487;-77
2022/12/27 06:48:20;;;;;;;197.20;104.43;;;8.60;99.90;;;;;;5075653;28;20024;-77
2022/12/27 06:50:46;;;;;;;215.98;112.13;;;8.60;99.90;;;;;;5093932;28;20469;-77
2022/12/27 06:53:13;;;;;;;222.30;111.13;;;8.70;99.90;;;;;;5097483;28;20028;-77
2022/12/27 06:55:39;;;;;;;202.90;103.00;;;8.70;99.90;;;;;;5097148;28;20024;-77
2022/12/27 06:58:05;;;;;;;197.75;96.65;;;8.70;99.90;;;;;;5115989;28;20070;-77
2022/12/27 07:00:31;;;;;;;207.98;105.22;;;8.80;99.90;;;;;;5117575;28;20027;-77
2022/12/27 07:02:57;;;;;;;157.07;83.72;;;8.70;99.90;;;;;;5110642;28;20031;-77
2022/12/27 07:05:22;;;;;;;187.68;95.70;;;8.60;99.90;;;;;;5095063;28;20039;-76
2022/12/27 07:07:52;;;;;;;190.30;101.70;;;8.70;99.90;;;;;;5092700;28;20080;-77
2022/12/27 07:10:19;;;;;;;226.37;117.67;;;8.70;99.90;;;;;;5087640;28;20035;-77
2022/12/27 07:12:45;;;;;;;224.88;118.57;;;8.70;99.90;;;;;;5107344;28;20031;-77
2022/12/27 07:15:10;;;;;;;222.43;115.65;;;8.70;99.90;;;;;;5115666;28;20103;-76
2022/12/27 07:17:38;;;;;;;207.63;111.28;;;8.80;99.90;;;;;;5096405;28;20035;-76
2022/12/27 07:20:08;;;;;;;195.85;95.03;;;8.90;99.90;;;;;;5096135;28;20031;-77
2022/12/27 07:22:37;;;;;;;176.98;90.20;;;8.80;99.90;;;;;;5115622;28;20024;-77
2022/12/27 07:25:04;;;;;;;173.30;86.95;;;8.80;99.90;;;;;;5115550;28;20027;-77
2022/12/27 07:27:35;;;;;;;164.63;87.00;;;8.80;99.90;;;;;;5115486;28;20038;-77
2022/12/27 07:30:01;;;;;;;170.52;87.45;;;8.90;99.90;;;;;;5115355;28;20431;-77
2022/12/27 07:32:27;;;;;;;180.23;96.63;;;9.00;99.90;;;;;;5115399;28;20076;-77
2022/12/27 07:34:53;;;;;;;149.43;78.30;;;9.00;99.90;;;;;;5114994;28;20027;-77
2022/12/27 07:37:19;;;;;;;165.57;86.40;;;9.10;99.90;;;;;;5106810;28;20032;-77
2022/12/27 07:39:46;;;;;;;176.60;91.47;;;9.10;99.90;;;;;;5096457;28;20032;-77
2022/12/27 07:42:12;;;;;;;154.52;79.18;;;9.10;99.90;;;;;;5095593;28;20440;-77
2022/12/27 07:44:38;;;;;;;143.95;75.15;;;9.10;99.90;;;;;;5094225;28;20048;-78
2022/12/27 07:47:04;;;;;;;224.20;104.80;;;9.10;99.90;;;;;;5094253;28;20492;-77
2022/12/27 07:49:30;;;;;;;252.32;115.18;;;9.20;99.90;;;;;;5094784;28;20032;-78
2022/12/27 07:51:56;;;;;;;211.98;104.10;;;9.20;99.90;;;;;;5094539;28;20047;-77
2022/12/27 07:54:22;;;;;;;248.98;106.53;;;9.30;99.90;;;;;;5094730;28;20036;-79
2022/12/27 07:56:48;;;;;;;320.95;123.03;;;9.30;99.90;;;;;;5093427;28;20024;-79
2022/12/27 07:59:14;;;;;;;452.30;167.15;;;9.40;99.90;;;;;;5094217;28;20473;-80
2022/12/27 08:04:24;;;;;;;239.50;116.47;;;9.50;99.90;;;;;;5094398;28;20020;-76
2022/12/27 08:06:50;;;;;;;274.42;129.32;;;9.50;99.90;;;;;;5095623;28;20020;-77
2022/12/27 08:09:23;;;;;;;278.63;131.73;;;9.50;99.90;;;;;;5100568;28;20376;-77
2022/12/27 08:11:48;;;;;;;270.95;132.13;;;9.60;99.90;;;;;;5116189;28;20495;-77
2022/12/27 08:14:14;;;;;;;225.38;113.75;;;9.60;99.90;;;;;;5097137;28;20032;-77
2022/12/27 08:16:40;;;;;;;231.05;111.97;;;9.70;99.90;;;;;;5094164;28;20028;-77
2022/12/27 08:19:06;;;;;;;236.35;118.60;;;9.70;99.90;;;;;;5090795;28;20698;-77
2022/12/27 08:21:32;;;;;;;224.13;117.95;;;9.80;99.90;;;;;;5093235;28;20082;-77
2022/12/27 08:23:58;;;;;;;215.80;115.30;;;9.80;99.90;;;;;;5095336;28;20047;-77
2022/12/27 08:26:26;;;;;;;206.73;108.28;;;9.60;99.90;;;;;;5094555;28;20111;-78
2022/12/27 08:28:52;;;;;;;201.65;104.03;;;9.50;99.90;;;;;;5095313;28;20062;-78
2022/12/27 08:31:21;;;;;;;217.60;115.45;;;9.40;99.90;;;;;;5081067;28;20046;-79
2022/12/27 08:33:47;;;;;;;221.73;123.38;;;9.40;99.90;;;;;;5114235;28;20024;-78
2022/12/27 08:36:14;;;;;;;240.07;132.20;;;9.40;99.90;;;;;;5098626;28;20267;-78
2022/12/27 08:38:40;;;;;;;250.48;132.93;;;9.30;99.90;;;;;;5093393;28;20024;-78
2022/12/27 08:41:08;;;;;;;251.23;135.25;;;9.30;99.90;;;;;;5093694;28;20424;-78
2022/12/27 08:43:34;;;;;;;253.88;138.68;;;9.30;99.90;;;;;;5093706;28;20033;-78
2022/12/27 08:46:05;;;;;;;260.83;139.90;;;9.30;99.90;;;;;;5092177;28;20024;-78
2022/12/27 08:55:46;;;;;;;291.30;150.90;;;9.20;99.90;;;;;;5093303;28;20077;-78
2022/12/27 08:58:12;;;;;;;257.77;138.63;;;9.20;99.90;;;;;;5098030;28;20062;-79
2022/12/27 09:00:38;;;;;;;240.90;126.38;;;9.20;99.90;;;;;;5080927;28;20085;-80
2022/12/27 09:03:04;;;;;;;207.52;115.43;;;9.20;99.90;;;;;;5099239;28;20062;-78
2022/12/27 09:05:29;;;;;;;193.52;109.78;;;9.30;99.90;;;;;;5097795;28;20103;-78
2022/12/27 09:07:57;;;;;;;187.32;103.72;;;9.20;99.90;;;;;;5098626;28;20043;-79
2022/12/27 09:10:23;;;;;;;171.80;94.38;;;9.20;99.90;;;;;;5098729;28;20028;-79
2022/12/27 09:12:49;;;;;;;208.48;112.40;;;9.30;99.90;;;;;;5098609;28;20032;-79
2022/12/27 09:15:15;;;;;;;199.40;110.18;;;9.50;99.90;;;;;;5098064;28;20032;-78
2022/12/27 09:17:42;;;;;;;187.90;103.30;;;9.60;99.90;;;;;;5100813;28;20441;-76
2022/12/27 09:20:11;;;;;;;165.38;92.85;;;9.60;99.90;;;;;;5097512;28;20028;-77
2022/12/27 09:22:37;;;;;;;167.35;95.47;;;9.70;99.90;;;;;;5098248;28;20016;-77
2022/12/27 09:25:07;;;;;;;187.88;102.60;;;9.80;99.90;;;;;;5097711;28;20032;-77
2022/12/27 09:27:35;;;;;;;194.68;110.70;;;9.90;99.90;;;;;;5098527;28;20036;-77
2022/12/27 09:30:01;;;;;;;212.05;114.43;;;9.90;99.90;;;;;;5098604;28;20374;-79
2022/12/27 09:32:27;;;;;;;209.30;110.50;;;9.80;99.90;;;;;;5080414;28;20535;-76
2022/12/27 09:34:53;;;;;;;201.50;109.22;;;9.80;99.90;;;;;;5096887;28;20031;-77
2022/12/27 09:37:19;;;;;;;204.95;115.82;;;9.90;99.90;;;;;;5107011;28;20028;-77
2022/12/27 09:39:45;;;;;;;308.00;148.48;;;10.00;99.90;;;;;;5118798;28;20089;-77
2022/12/27 09:42:46;;;;;;;357.05;168.05;;;10.20;99.90;;;;;;5118636;28;20024;-76
2022/12/27 09:45:18;;;;;;;258.17;134.18;;;10.30;99.90;;;;;;5118623;28;20122;-77
2022/12/27 09:48:06;;;;;;;236.40;129.30;;;10.40;99.90;;;;;;5077872;28;20029;-77
2022/12/27 09:50:48;;;;;;;209.23;117.57;;;10.40;99.90;;;;;;5080647;28;20148;-77
2022/12/27 09:53:20;;;;;;;231.23;123.90;;;10.50;99.90;;;;;;5096415;28;20101;-77
2022/12/27 09:55:51;;;;;;;244.70;131.60;;;10.50;99.90;;;;;;5096166;28;20047;-77
2022/12/27 09:58:48;;;;;;;209.93;116.00;;;10.50;99.90;;;;;;5095941;28;20073;-77
2022/12/27 10:01:30;;;;;;;225.13;130.35;;;10.50;99.90;;;;;;5094076;28;20105;-77
2022/12/27 10:03:56;;;;;;;231.32;130.13;;;10.50;99.90;;;;;;5095156;28;20020;-77
2022/12/27 10:06:22;;;;;;;225.35;129.25;;;10.50;99.90;;;;;;5096215;28;20028;-77
2022/12/27 10:08:54;;;;;;;208.20;121.22;;;10.40;99.90;;;;;;5096369;28;20027;-77
2022/12/27 10:11:34;;;;;;;236.98;133.65;;;10.50;99.90;;;;;;5095790;28;20480;-77
2022/12/27 10:14:30;;;;;;;218.80;123.25;;;10.50;99.90;;;;;;5094843;28;20028;-77
2022/12/27 10:28:40;;;;;;;300.73;155.75;;;10.60;99.90;;;;;;5132060;27;20371;-74
2022/12/27 10:31:19;;;;;;;299.27;154.57;;;10.90;99.90;;;;;;5131846;27;20469;-75
2022/12/27 10:33:50;;;;;;;270.98;146.90;;;10.90;99.90;;;;;;5132141;27;20022;-75
2022/12/27 10:36:29;;;;;;;249.45;135.52;;;10.90;99.90;;;;;;5130749;27;20201;-74
2022/12/27 10:38:55;;;;;;;231.57;128.85;;;11.00;99.90;;;;;;5131871;27;20503;-75
2022/12/27 10:41:21;;;;;;;222.85;123.70;;;10.90;99.90;;;;;;5132249;28;20131;-75
2022/12/27 10:43:51;;;;;;;233.68;129.38;;;11.00;99.90;;;;;;5133132;28;20043;-75
2022/12/27 10:46:23;;;;;;;226.70;128.33;;;10.90;99.90;;;;;;5132950;27;20426;-75
2022/12/27 10:49:04;;;;;;;231.43;127.93;;;11.00;99.90;;;;;;5132854;28;20027;-75
2022/12/27 10:51:39;;;;;;;231.70;126.55;;;11.10;99.90;;;;;;5132807;27;20042;-75
2022/12/27 10:54:12;;;;;;;236.50;128.88;;;11.20;99.90;;;;;;5132835;27;20472;-75
2022/12/27 10:56:40;;;;;;;256.58;134.60;;;11.20;99.90;;;;;;5131860;27;20119;-75
2022/12/27 10:59:18;;;;;;;235.32;123.22;;;11.20;99.90;;;;;;5132636;27;20015;-75
2022/12/27 11:01:49;;;;;;;225.13;120.57;;;11.20;99.90;;;;;;5132122;28;20045;-75
2022/12/27 11:04:23;;;;;;;255.38;136.80;;;11.30;99.90;;;;;;5132777;27;20106;-75
2022/12/27 11:07:10;;;;;;;259.55;136.23;;;11.20;99.90;;;;;;5132674;28;20035;-75
2022/12/27 11:09:40;;;;;;;265.88;142.52;;;11.20;99.90;;;;;;5131800;27;20027;-75
2022/12/27 11:12:20;;;;;;;277.42;148.93;;;11.30;99.90;;;;;;5132541;27;20035;-75
2022/12/27 11:14:59;;;;;;;300.05;159.85;;;11.40;99.90;;;;;;5132067;27;20514;-75
2022/12/27 11:17:47;;;;;;;298.95;166.75;;;11.50;99.90;;;;;;5131725;27;20068;-75
2022/12/27 11:20:21;;;;;;;312.70;183.38;;;11.60;99.90;;;;;;5132574;27;20371;-75
2022/12/27 11:22:55;;;;;;;320.17;186.77;;;11.60;99.90;;;;;;5130700;27;20059;-75
2022/12/27 11:25:22;;;;;;;322.90;189.80;;;11.50;99.90;;;;;;5122434;27;20406;-75
2022/12/27 11:27:51;;;;;;;337.60;202.10;;;11.60;99.90;;;;;;5127394;28;20043;-75
2022/12/27 11:30:52;;;;;;;289.45;168.60;;;11.70;99.90;;;;;;5118069;28;20027;-75
2022/12/27 11:33:22;;;;;;;;;;;11.70;99.90;;;;;;5115784;28;20035;-75
2022/12/27 11:35:53;;;;;;;255.60;141.75;;;11.60;99.90;;;;;;5117450;28;19915;-75
2022/12/27 11:38:29;;;;;;;269.25;151.68;;;11.70;99.90;;;;;;5114190;27;20099;-75
2022/12/27 11:41:01;;;;;;;289.77;163.40;;;11.70;99.90;;;;;;5111337;28;20031;-75
2022/12/27 11:43:32;;;;;;;284.15;158.77;;;11.60;99.90;;;;;;5112657;28;20027;-75
2022/12/27 11:46:02;;;;;;;248.48;140.73;;;11.60;99.90;;;;;;5110098;27;20107;-76
2022/12/27 11:48:34;;;;;;;233.32;138.10;;;11.60;99.90;;;;;;5111018;28;20024;-75
2022/12/27 11:51:44;;;;;;;251.38;144.70;;;11.60;99.90;;;;;;5115824;28;20026;-75
2022/12/27 11:54:30;;;;;;;233.68;143.10;;;11.60;99.90;;;;;;5037800;28;20037;-75
2022/12/27 11:57:16;;;;;;;242.43;144.65;;;11.70;99.90;;;;;;5034399;28;20037;-75
2022/12/27 11:59:57;;;;;;;214.77;129.57;;;11.70;99.90;;;;;;5034433;28;20541;-76
2022/12/27 12:03:03;;;;;;;201.90;118.18;;;11.70;99.90;;;;;;5018350;28;20060;-75
2022/12/27 12:05:51;;;;;;;169.77;101.68;;;11.80;99.90;;;;;;5034598;28;20042;-76
2022/12/27 12:08:36;;;;;;;123.53;73.88;;;11.70;99.90;;;;;;5030757;28;20133;-76
2022/12/27 12:11:55;;;;;;;102.00;58.20;;;11.70;99.90;;;;;;5027953;28;20063;-80
2022/12/27 12:14:45;;;;;;;84.47;49.90;;;11.70;99.90;;;;;;5027222;28;20059;-75
2022/12/27 12:17:20;;;;;;;71.68;40.70;;;11.60;99.90;;;;;;5028590;28;20041;-75
2022/12/27 12:20:57;;;;;;;60.78;34.75;;;11.60;99.90;;;;;;5029592;28;20104;-74
2022/12/27 12:23:44;;;;;;;54.33;31.80;;;11.50;99.90;;;;;;4951051;28;20411;-75
2022/12/27 12:26:13;;;;;;;48.47;24.55;;;11.50;99.90;;;;;;5026176;28;20147;-75
2022/12/27 12:28:57;;;;;;;42.40;25.40;;;11.50;99.90;;;;;;5020845;28;20038;-75
2022/12/27 12:31:41;;;;;;;47.60;24.10;;;11.40;99.90;;;;;;5032963;28;20065;-75
2022/12/27 12:34:26;;;;;;;45.72;23.92;;;11.40;99.90;;;;;;5029709;28;20048;-75
2022/12/27 12:36:58;;;;;;;58.58;29.60;;;11.40;99.90;;;;;;5028748;28;20065;-75
2022/12/27 12:39:42;;;;;;;53.78;30.42;;;11.30;99.90;;;;;;5031875;28;20053;-75
2022/12/27 12:42:21;;;;;;;50.55;28.05;;;11.30;99.90;;;;;;5033792;28;20061;-75
2022/12/27 12:45:31;;;;;;;61.25;29.35;;;11.30;99.90;;;;;;5033054;28;20033;-76
2022/12/27 12:48:19;;;;;;;44.55;26.52;;;11.30;99.90;;;;;;4994905;28;20057;-75
2022/12/27 12:50:53;;;;;;;45.85;26.95;;;11.30;99.90;;;;;;5028400;28;20509;-75
2022/12/27 12:53:38;;;;;;;48.50;25.17;;;11.20;99.90;;;;;;5058461;28;20082;-76
2022/12/27 12:56:42;;;;;;;51.45;30.48;;;11.20;99.90;;;;;;5109679;28;20024;-75
2022/12/27 12:59:38;;;;;;;44.90;27.30;;;11.10;99.90;;;;;;5109805;28;20035;-75
2022/12/27 13:02:42;;;;;;;55.47;30.55;;;11.20;99.90;;;;;;5116553;28;20036;-76
2022/12/27 13:05:49;;;;;;;66.70;37.22;;;11.10;99.90;;;;;;5114639;28;20026;-75
2022/12/27 13:08:34;;;;;;;63.63;34.88;;;10.90;99.90;;;;;;5053159;28;20630;-76
2022/12/27 13:11:18;;;;;;;56.88;31.58;;;10.90;99.90;;;;;;5054380;28;20059;-76
2022/12/27 13:14:07;;;;;;;51.75;30.15;;;10.80;99.90;;;;;;5049639;28;20059;-76
2022/12/27 13:16:39;;;;;;;86.03;39.08;;;10.80;99.90;;;;;;5043804;28;20034;-76
2022/12/27 13:19:24;;;;;;;50.42;29.55;;;10.90;99.90;;;;;;5040870;28;20537;-77
2022/12/27 13:22:03;;;;;;;61.72;30.48;;;11.00;99.90;;;;;;5045436;28;20108;-75
2022/12/27 13:25:02;;;;;;;70.05;32.97;;;11.00;99.90;;;;;;5057547;28;20052;-74
2022/12/27 13:28:01;;;;;;;69.95;33.33;;;10.90;99.90;;;;;;5053006;28;20056;-75
2022/12/27 13:30:34;;;;;;;69.35;32.88;;;10.90;99.90;;;;;;5055314;28;20100;-76
2022/12/27 13:33:11;;;;;;;59.05;31.42;;;11.00;99.90;;;;;;5058097;28;20168;-76
2022/12/27 13:36:01;;;;;;;46.72;25.42;;;11.00;99.90;;;;;;5052857;28;20111;-75
2022/12/27 13:38:49;;;;;;;46.45;24.83;;;11.00;99.90;;;;;;5029069;28;20383;-75
2022/12/27 13:41:50;;;;;;;59.45;30.85;;;10.90;99.90;;;;;;5037255;28;20537;-76
2022/12/27 13:44:32;;;;;;;40.05;22.73;;;11.00;99.90;;;;;;5105592;28;20020;-75
2022/12/27 13:47:36;;;;;;;36.72;21.85;;;11.00;99.90;;;;;;5112358;28;20028;-75
2022/12/27 13:50:10;;;;;;;52.28;35.22;;;11.10;99.90;;;;;;5115156;28;20027;-75
2022/12/27 13:52:55;;;;;;;47.33;29.67;;;10.90;99.90;;;;;;5096970;28;20071;-75
2022/12/27 13:55:50;;;;;;;41.83;25.88;;;10.90;99.90;;;;;;5111356;28;20409;-76
2022/12/27 13:58:31;;;;;;;51.83;31.38;;;10.90;99.90;;;;;;5100777;28;20051;-75
2022/12/27 14:01:30;;;;;;;100.68;64.97;;;10.90;99.90;;;;;;5103395;28;20057;-75
2022/12/27 14:04:41;;;;;;;79.40;53.72;;;10.80;99.90;;;;;;5112193;28;20360;-74
2022/12/27 14:07:16;;;;;;;55.13;34.95;;;10.80;99.90;;;;;;5086808;28;20039;-74
2022/12/27 14:10:07;;;;;;;47.30;26.15;;;10.70;99.90;;;;;;5099195;28;20032;-74
2022/12/27 14:12:57;;;;;;;47.78;24.23;;;10.70;99.90;;;;;;5095414;28;20451;-74
2022/12/27 14:15:41;;;;;;;48.50;28.65;;;10.80;99.90;;;;;;5094955;28;20110;-74
2022/12/27 14:18:22;;;;;;;44.47;24.75;;;10.70;99.90;;;;;;5094193;28;20040;-74
2022/12/27 14:21:08;;;;;;;66.75;32.78;;;10.70;99.90;;;;;;5094358;28;20435;-74
2022/12/27 14:23:59;;;;;;;71.25;36.55;;;10.80;99.90;;;;;;5094387;28;20056;-74
2022/12/27 14:26:34;;;;;;;;;;;10.80;99.90;;;;;;5094586;28;20040;-74
2022/12/27 14:29:18;;;;;;;71.65;34.85;;;10.70;99.90;;;;;;5094473;28;19962;-74
2022/12/27 14:32:11;;;;;;;22.77;11.30;;;10.70;99.90;;;;;;5094482;28;20570;-74
2022/12/27 14:34:55;;;;;;;20.25;11.10;;;10.60;99.90;;;;;;5094379;28;20086;-74
2022/12/27 14:37:40;;;;;;;13.73;7.72;;;10.40;99.90;;;;;;5094056;28;20098;-74
2022/12/27 14:40:43;;;;;;;9.98;5.57;;;10.30;99.90;;;;;;5094343;28;20063;-74
2022/12/27 14:43:46;;;;;;;10.60;5.82;;;10.10;99.90;;;;;;5094250;28;20024;-74
2022/12/27 14:46:46;;;;;;;19.50;8.27;;;10.10;99.90;;;;;;5094221;28;20043;-74
2022/12/27 14:49:37;;;;;;;18.55;9.00;;;10.10;99.90;;;;;;5094295;28;20032;-74
2022/12/27 14:52:18;;;;;;;15.38;8.20;;;10.10;99.90;;;;;;5094236;28;20058;-74
2022/12/27 14:55:02;;;;;;;;;;;10.10;99.90;;;;;;5094575;28;20031;-73
2022/12/27 14:57:31;;;;;;;24.20;10.90;;;10.00;99.90;;;;;;5094035;28;19919;-73